sensor_id;sensor_type;location;lat;lon;timestamp;P1;durP1;ratioP1;P2;durP2;ratioP2
13291;SDS011;6714;53.056;8.690;2022-09-09T00:01:58;2.90;;;2.70;;
13291;SDS011;6714;53.056;8.690;2022-09-09T00:04:42;3.37;;;3.17;;
13291;SDS011;6714;53.056;8.690;2022-09-09T00:07:30;4.07;;;3.20;;
13291;SDS011;6714;53.056;8.690;2022-09-09T00:10:16;3.40;;;3.20;;
13291;SDS011;6714;53.056;8.690;2022-09-09T00:13:04;3.50;;;3.20;;
13291;SDS011;6714;53.056;8.690;2022-09-09T00:15:51;4.13;;;3.47;;
13291;SDS011;6714;53.056;8.690;2022-09-09T00:18:44;3.40;;;3.10;;
13291;SDS011;6714;53.056;8.690;2022-09-09T00:21:30;3.30;;;3.10;;
13291;SDS011;6714;53.056;8.690;2022-09-09T00:24:16;3.67;;;3.30;;
13291;SDS011;6714;53.056;8.690;2022-09-09T00:27:02;3.23;;;3.03;;
13291;SDS011;6714;53.056;8.690;2022-09-09T00:29:47;3.43;;;3.13;;
13291;SDS011;6714;53.056;8.690;2022-09-09T00:32:35;2.90;;;2.70;;
13291;SDS011;6714;53.056;8.690;2022-09-09T00:35:18;3.27;;;2.97;;
13291;SDS011;6714;53.056;8.690;2022-09-09T00:38:05;2.80;;;2.60;;
13291;SDS011;6714;53.056;8.690;2022-09-09T00:40:51;4.07;;;3.77;;
13291;SDS011;6714;53.056;8.690;2022-09-09T00:43:35;4.70;;;3.00;;
13291;SDS011;6714;53.056;8.690;2022-09-09T00:49:24;4.27;;;3.87;;
13291;SDS011;6714;53.056;8.690;2022-09-09T00:52:13;3.70;;;3.50;;
13291;SDS011;6714;53.056;8.690;2022-09-09T00:55:03;4.90;;;4.00;;
13291;SDS011;6714;53.056;8.690;2022-09-09T00:57:46;4.23;;;3.93;;
13291;SDS011;6714;53.056;8.690;2022-09-09T01:00:31;5.20;;;4.57;;
13291;SDS011;6714;53.056;8.690;2022-09-09T01:03:21;4.80;;;4.40;;
13291;SDS011;6714;53.056;8.690;2022-09-09T01:06:13;3.70;;;3.50;;
13291;SDS011;6714;53.056;8.690;2022-09-09T01:09:05;4.17;;;3.77;;
13291;SDS011;6714;53.056;8.690;2022-09-09T01:11:52;4.83;;;4.43;;
13291;SDS011;6714;53.056;8.690;2022-09-09T01:14:39;5.57;;;4.90;;
13291;SDS011;6714;53.056;8.690;2022-09-09T01:17:23;4.30;;;3.90;;
13291;SDS011;6714;53.056;8.690;2022-09-09T01:20:10;5.73;;;5.17;;
13291;SDS011;6714;53.056;8.690;2022-09-09T01:23:02;6.10;;;5.50;;
13291;SDS011;6714;53.056;8.690;2022-09-09T01:28:48;6.57;;;5.87;;
13291;SDS011;6714;53.056;8.690;2022-09-09T01:31:33;5.93;;;5.43;;
13291;SDS011;6714;53.056;8.690;2022-09-09T01:34:17;5.10;;;4.60;;
13291;SDS011;6714;53.056;8.690;2022-09-09T01:37:01;9.87;;;4.97;;
13291;SDS011;6714;53.056;8.690;2022-09-09T01:39:44;6.80;;;6.20;;
13291;SDS011;6714;53.056;8.690;2022-09-09T01:42:27;6.30;;;5.50;;
13291;SDS011;6714;53.056;8.690;2022-09-09T01:45:11;5.77;;;5.27;;
13291;SDS011;6714;53.056;8.690;2022-09-09T01:47:53;6.17;;;5.57;;
13291;SDS011;6714;53.056;8.690;2022-09-09T01:50:36;6.30;;;5.70;;
13291;SDS011;6714;53.056;8.690;2022-09-09T01:53:19;5.13;;;4.40;;
13291;SDS011;6714;53.056;8.690;2022-09-09T01:56:07;5.60;;;4.87;;
13291;SDS011;6714;53.056;8.690;2022-09-09T01:58:54;5.00;;;4.50;;
13291;SDS011;6714;53.056;8.690;2022-09-09T02:01:45;5.00;;;4.60;;
13291;SDS011;6714;53.056;8.690;2022-09-09T02:04:34;6.00;;;5.50;;
13291;SDS011;6714;53.056;8.690;2022-09-09T02:07:21;8.13;;;5.97;;
13291;SDS011;6714;53.056;8.690;2022-09-09T02:10:08;4.43;;;4.07;;
13291;SDS011;6714;53.056;8.690;2022-09-09T02:12:52;6.40;;;5.47;;
13291;SDS011;6714;53.056;8.690;2022-09-09T02:15:37;5.77;;;5.27;;
13291;SDS011;6714;53.056;8.690;2022-09-09T02:18:25;6.70;;;5.73;;
13291;SDS011;6714;53.056;8.690;2022-09-09T02:21:08;7.50;;;5.97;;
13291;SDS011;6714;53.056;8.690;2022-09-09T02:23:51;6.00;;;5.40;;
13291;SDS011;6714;53.056;8.690;2022-09-09T02:26:37;6.17;;;5.57;;
13291;SDS011;6714;53.056;8.690;2022-09-09T02:29:22;3.93;;;3.47;;
13291;SDS011;6714;53.056;8.690;2022-09-09T02:32:06;6.50;;;5.83;;
13291;SDS011;6714;53.056;8.690;2022-09-09T02:34:51;5.27;;;4.77;;
13291;SDS011;6714;53.056;8.690;2022-09-09T02:37:36;6.07;;;4.60;;
13291;SDS011;6714;53.056;8.690;2022-09-09T02:40:19;4.97;;;4.50;;
13291;SDS011;6714;53.056;8.690;2022-09-09T02:43:02;5.27;;;4.63;;
13291;SDS011;6714;53.056;8.690;2022-09-09T02:45:47;5.57;;;5.07;;
13291;SDS011;6714;53.056;8.690;2022-09-09T02:48:34;5.20;;;4.80;;
13291;SDS011;6714;53.056;8.690;2022-09-09T02:51:21;5.67;;;5.10;;
13291;SDS011;6714;53.056;8.690;2022-09-09T02:54:08;5.30;;;4.80;;
13291;SDS011;6714;53.056;8.690;2022-09-09T02:56:53;4.83;;;4.43;;
13291;SDS011;6714;53.056;8.690;2022-09-09T02:59:36;5.57;;;4.90;;
13291;SDS011;6714;53.056;8.690;2022-09-09T03:02:18;5.27;;;4.67;;
13291;SDS011;6714;53.056;8.690;2022-09-09T03:05:00;4.70;;;4.27;;
13291;SDS011;6714;53.056;8.690;2022-09-09T03:07:44;6.23;;;4.60;;
13291;SDS011;6714;53.056;8.690;2022-09-09T03:10:26;5.80;;;5.30;;
13291;SDS011;6714;53.056;8.690;2022-09-09T03:13:08;4.93;;;4.33;;
13291;SDS011;6714;53.056;8.690;2022-09-09T03:15:52;5.67;;;5.13;;
13291;SDS011;6714;53.056;8.690;2022-09-09T03:18:34;5.50;;;5.10;;
13291;SDS011;6714;53.056;8.690;2022-09-09T03:21:16;3.77;;;3.47;;
13291;SDS011;6714;53.056;8.690;2022-09-09T03:24:00;7.80;;;4.70;;
13291;SDS011;6714;53.056;8.690;2022-09-09T03:26:43;6.03;;;4.40;;
13291;SDS011;6714;53.056;8.690;2022-09-09T03:29:25;6.27;;;5.67;;
13291;SDS011;6714;53.056;8.690;2022-09-09T03:32:07;4.33;;;4.03;;
13291;SDS011;6714;53.056;8.690;2022-09-09T03:34:50;5.13;;;4.60;;
13291;SDS011;6714;53.056;8.690;2022-09-09T03:37:32;6.20;;;5.43;;
13291;SDS011;6714;53.056;8.690;2022-09-09T03:40:16;7.00;;;5.40;;
13291;SDS011;6714;53.056;8.690;2022-09-09T03:42:59;6.50;;;4.90;;
13291;SDS011;6714;53.056;8.690;2022-09-09T03:45:41;4.83;;;4.30;;
13291;SDS011;6714;53.056;8.690;2022-09-09T03:48:27;4.53;;;4.13;;
13291;SDS011;6714;53.056;8.690;2022-09-09T03:51:09;4.77;;;4.40;;
13291;SDS011;6714;53.056;8.690;2022-09-09T03:53:51;6.30;;;5.10;;
13291;SDS011;6714;53.056;8.690;2022-09-09T03:56:36;5.43;;;4.03;;
13291;SDS011;6714;53.056;8.690;2022-09-09T03:59:21;4.37;;;3.97;;
13291;SDS011;6714;53.056;8.690;2022-09-09T04:02:03;4.30;;;4.00;;
13291;SDS011;6714;53.056;8.690;2022-09-09T04:04:45;7.77;;;5.20;;
13291;SDS011;6714;53.056;8.690;2022-09-09T04:07:28;4.83;;;4.43;;
13291;SDS011;6714;53.056;8.690;2022-09-09T04:10:10;5.23;;;4.73;;
13291;SDS011;6714;53.056;8.690;2022-09-09T04:12:54;6.80;;;4.80;;
13291;SDS011;6714;53.056;8.690;2022-09-09T04:15:36;5.80;;;5.17;;
13291;SDS011;6714;53.056;8.690;2022-09-09T04:18:18;5.83;;;3.93;;
13291;SDS011;6714;53.056;8.690;2022-09-09T04:21:00;5.63;;;4.43;;
13291;SDS011;6714;53.056;8.690;2022-09-09T04:23:43;4.97;;;4.47;;
13291;SDS011;6714;53.056;8.690;2022-09-09T04:26:25;4.60;;;4.20;;
13291;SDS011;6714;53.056;8.690;2022-09-09T04:29:09;5.10;;;3.97;;
13291;SDS011;6714;53.056;8.690;2022-09-09T04:31:51;6.27;;;4.73;;
13291;SDS011;6714;53.056;8.690;2022-09-09T04:34:33;4.07;;;3.70;;
13291;SDS011;6714;53.056;8.690;2022-09-09T04:37:16;4.00;;;3.67;;
13291;SDS011;6714;53.056;8.690;2022-09-09T04:39:58;5.07;;;4.57;;
13291;SDS011;6714;53.056;8.690;2022-09-09T04:42:42;3.70;;;3.40;;
13291;SDS011;6714;53.056;8.690;2022-09-09T04:45:26;5.83;;;5.00;;
13291;SDS011;6714;53.056;8.690;2022-09-09T04:48:08;4.43;;;3.97;;
13291;SDS011;6714;53.056;8.690;2022-09-09T04:50:53;6.23;;;4.20;;
13291;SDS011;6714;53.056;8.690;2022-09-09T04:53:36;5.80;;;3.40;;
13291;SDS011;6714;53.056;8.690;2022-09-09T04:56:19;5.93;;;4.03;;
13291;SDS011;6714;53.056;8.690;2022-09-09T04:59:01;3.80;;;3.47;;
13291;SDS011;6714;53.056;8.690;2022-09-09T05:01:45;4.30;;;3.03;;
13291;SDS011;6714;53.056;8.690;2022-09-09T05:04:27;3.37;;;2.77;;
13291;SDS011;6714;53.056;8.690;2022-09-09T05:07:10;4.33;;;3.50;;
13291;SDS011;6714;53.056;8.690;2022-09-09T05:09:53;4.23;;;3.83;;
13291;SDS011;6714;53.056;8.690;2022-09-09T05:12:35;3.50;;;3.20;;
13291;SDS011;6714;53.056;8.690;2022-09-09T05:15:17;5.87;;;3.20;;
13291;SDS011;6714;53.056;8.690;2022-09-09T05:18:02;5.50;;;4.47;;
13291;SDS011;6714;53.056;8.690;2022-09-09T05:20:44;3.20;;;3.00;;
13291;SDS011;6714;53.056;8.690;2022-09-09T05:23:26;3.90;;;3.53;;
13291;SDS011;6714;53.056;8.690;2022-09-09T05:26:09;4.83;;;3.20;;
13291;SDS011;6714;53.056;8.690;2022-09-09T05:28:53;3.70;;;3.40;;
13291;SDS011;6714;53.056;8.690;2022-09-09T05:31:35;3.40;;;3.10;;
13291;SDS011;6714;53.056;8.690;2022-09-09T05:34:20;3.77;;;3.43;;
13291;SDS011;6714;53.056;8.690;2022-09-09T05:37:02;3.97;;;3.67;;
13291;SDS011;6714;53.056;8.690;2022-09-09T05:39:45;4.00;;;3.70;;
13291;SDS011;6714;53.056;8.690;2022-09-09T05:42:29;2.73;;;2.53;;
13291;SDS011;6714;53.056;8.690;2022-09-09T05:45:11;3.90;;;3.23;;
13291;SDS011;6714;53.056;8.690;2022-09-09T05:47:54;3.17;;;2.80;;
13291;SDS011;6714;53.056;8.690;2022-09-09T05:50:38;3.27;;;2.97;;
13291;SDS011;6714;53.056;8.690;2022-09-09T05:53:20;3.37;;;3.07;;
13291;SDS011;6714;53.056;8.690;2022-09-09T05:56:04;4.57;;;3.60;;
13291;SDS011;6714;53.056;8.690;2022-09-09T05:58:46;4.50;;;3.60;;
13291;SDS011;6714;53.056;8.690;2022-09-09T06:01:30;4.40;;;3.73;;
13291;SDS011;6714;53.056;8.690;2022-09-09T06:04:12;4.40;;;4.00;;
13291;SDS011;6714;53.056;8.690;2022-09-09T06:06:56;3.10;;;2.90;;
13291;SDS011;6714;53.056;8.690;2022-09-09T06:09:39;4.23;;;3.53;;
13291;SDS011;6714;53.056;8.690;2022-09-09T06:12:21;3.77;;;3.00;;
13291;SDS011;6714;53.056;8.690;2022-09-09T06:15:04;2.67;;;2.47;;
13291;SDS011;6714;53.056;8.690;2022-09-09T06:17:47;3.60;;;3.30;;
13291;SDS011;6714;53.056;8.690;2022-09-09T06:20:29;4.77;;;3.17;;
13291;SDS011;6714;53.056;8.690;2022-09-09T06:23:13;4.70;;;3.10;;
13291;SDS011;6714;53.056;8.690;2022-09-09T06:26:02;4.27;;;3.97;;
13291;SDS011;6714;53.056;8.690;2022-09-09T06:28:45;3.37;;;3.07;;
13291;SDS011;6714;53.056;8.690;2022-09-09T06:31:28;5.33;;;3.50;;
13291;SDS011;6714;53.056;8.690;2022-09-09T06:34:11;5.00;;;4.10;;
13291;SDS011;6714;53.056;8.690;2022-09-09T06:36:53;4.13;;;3.70;;
13291;SDS011;6714;53.056;8.690;2022-09-09T06:39:39;4.63;;;4.10;;
13291;SDS011;6714;53.056;8.690;2022-09-09T06:42:21;3.83;;;3.53;;
13291;SDS011;6714;53.056;8.690;2022-09-09T06:45:03;7.13;;;3.77;;
13291;SDS011;6714;53.056;8.690;2022-09-09T06:47:47;4.40;;;4.00;;
13291;SDS011;6714;53.056;8.690;2022-09-09T06:50:29;4.23;;;3.93;;
13291;SDS011;6714;53.056;8.690;2022-09-09T06:53:11;6.60;;;4.33;;
13291;SDS011;6714;53.056;8.690;2022-09-09T06:55:55;4.47;;;4.00;;
13291;SDS011;6714;53.056;8.690;2022-09-09T06:58:37;4.97;;;3.77;;
13291;SDS011;6714;53.056;8.690;2022-09-09T07:01:23;4.93;;;4.23;;
13291;SDS011;6714;53.056;8.690;2022-09-09T07:04:05;4.00;;;3.60;;
13291;SDS011;6714;53.056;8.690;2022-09-09T07:06:49;4.50;;;4.00;;
13291;SDS011;6714;53.056;8.690;2022-09-09T07:09:32;4.87;;;4.40;;
13291;SDS011;6714;53.056;8.690;2022-09-09T07:12:15;4.77;;;4.33;;
13291;SDS011;6714;53.056;8.690;2022-09-09T07:14:58;3.90;;;3.60;;
13291;SDS011;6714;53.056;8.690;2022-09-09T07:17:40;3.63;;;3.33;;
13291;SDS011;6714;53.056;8.690;2022-09-09T07:20:22;3.80;;;3.50;;
13291;SDS011;6714;53.056;8.690;2022-09-09T07:23:04;4.10;;;3.70;;
13291;SDS011;6714;53.056;8.690;2022-09-09T07:25:46;5.50;;;4.17;;
13291;SDS011;6714;53.056;8.690;2022-09-09T07:28:30;3.80;;;3.47;;
13291;SDS011;6714;53.056;8.690;2022-09-09T07:31:13;5.97;;;3.90;;
13291;SDS011;6714;53.056;8.690;2022-09-09T07:33:56;2.77;;;2.50;;
13291;SDS011;6714;53.056;8.690;2022-09-09T07:36:39;4.13;;;3.50;;
13291;SDS011;6714;53.056;8.690;2022-09-09T07:39:22;3.23;;;2.80;;
13291;SDS011;6714;53.056;8.690;2022-09-09T07:42:04;4.00;;;3.40;;
13291;SDS011;6714;53.056;8.690;2022-09-09T07:44:48;4.37;;;3.47;;
13291;SDS011;6714;53.056;8.690;2022-09-09T07:47:34;3.10;;;2.90;;
13291;SDS011;6714;53.056;8.690;2022-09-09T07:50:17;3.10;;;2.73;;
13291;SDS011;6714;53.056;8.690;2022-09-09T07:52:59;4.50;;;3.70;;
13291;SDS011;6714;53.056;8.690;2022-09-09T07:55:42;4.40;;;3.50;;
13291;SDS011;6714;53.056;8.690;2022-09-09T07:58:25;3.93;;;3.30;;
13291;SDS011;6714;53.056;8.690;2022-09-09T08:01:14;4.10;;;3.70;;
13291;SDS011;6714;53.056;8.690;2022-09-09T08:03:59;5.53;;;4.90;;
13291;SDS011;6714;53.056;8.690;2022-09-09T08:06:45;4.93;;;3.63;;
13291;SDS011;6714;53.056;8.690;2022-09-09T08:09:28;4.20;;;3.53;;
13291;SDS011;6714;53.056;8.690;2022-09-09T08:12:12;2.03;;;1.80;;
13291;SDS011;6714;53.056;8.690;2022-09-09T08:14:55;2.20;;;1.73;;
13291;SDS011;6714;53.056;8.690;2022-09-09T08:17:39;4.50;;;2.57;;
13291;SDS011;6714;53.056;8.690;2022-09-09T08:20:22;3.63;;;2.30;;
13291;SDS011;6714;53.056;8.690;2022-09-09T08:23:04;2.93;;;2.27;;
13291;SDS011;6714;53.056;8.690;2022-09-09T08:25:47;2.13;;;1.87;;
13291;SDS011;6714;53.056;8.690;2022-09-09T08:28:30;3.50;;;3.03;;
13291;SDS011;6714;53.056;8.690;2022-09-09T08:31:14;3.60;;;2.40;;
13291;SDS011;6714;53.056;8.690;2022-09-09T08:33:59;4.20;;;3.10;;
13291;SDS011;6714;53.056;8.690;2022-09-09T08:36:44;2.43;;;2.10;;
13291;SDS011;6714;53.056;8.690;2022-09-09T08:39:27;3.10;;;2.90;;
13291;SDS011;6714;53.056;8.690;2022-09-09T08:42:13;3.13;;;2.77;;
13291;SDS011;6714;53.056;8.690;2022-09-09T08:45:19;2.03;;;1.90;;
13291;SDS011;6714;53.056;8.690;2022-09-09T08:48:13;3.23;;;2.77;;
13291;SDS011;6714;53.056;8.690;2022-09-09T08:50:59;2.10;;;1.90;;
13291;SDS011;6714;53.056;8.690;2022-09-09T08:53:43;2.10;;;2.00;;
13291;SDS011;6714;53.056;8.690;2022-09-09T08:56:26;3.70;;;2.40;;
13291;SDS011;6714;53.056;8.690;2022-09-09T08:59:09;2.70;;;2.40;;
13291;SDS011;6714;53.056;8.690;2022-09-09T09:01:57;2.47;;;2.20;;
13291;SDS011;6714;53.056;8.690;2022-09-09T09:04:49;1.53;;;1.47;;
13291;SDS011;6714;53.056;8.690;2022-09-09T09:07:39;2.10;;;1.93;;
13291;SDS011;6714;53.056;8.690;2022-09-09T09:10:28;1.57;;;1.43;;
13291;SDS011;6714;53.056;8.690;2022-09-09T09:13:15;2.07;;;1.63;;
13291;SDS011;6714;53.056;8.690;2022-09-09T09:16:01;2.17;;;1.33;;
13291;SDS011;6714;53.056;8.690;2022-09-09T09:18:44;2.03;;;1.60;;
13291;SDS011;6714;53.056;8.690;2022-09-09T09:21:29;1.80;;;1.50;;
13291;SDS011;6714;53.056;8.690;2022-09-09T09:24:18;1.27;;;1.20;;
13291;SDS011;6714;53.056;8.690;2022-09-09T09:27:04;1.97;;;1.53;;
13291;SDS011;6714;53.056;8.690;2022-09-09T09:29:49;1.30;;;1.20;;
13291;SDS011;6714;53.056;8.690;2022-09-09T09:32:33;1.97;;;1.50;;
13291;SDS011;6714;53.056;8.690;2022-09-09T09:35:16;1.30;;;1.20;;
13291;SDS011;6714;53.056;8.690;2022-09-09T09:37:58;2.10;;;1.60;;
13291;SDS011;6714;53.056;8.690;2022-09-09T09:40:49;1.73;;;1.30;;
13291;SDS011;6714;53.056;8.690;2022-09-09T09:43:36;1.57;;;1.43;;
13291;SDS011;6714;53.056;8.690;2022-09-09T09:46:19;1.10;;;1.10;;
13291;SDS011;6714;53.056;8.690;2022-09-09T09:49:03;1.20;;;1.10;;
13291;SDS011;6714;53.056;8.690;2022-09-09T09:51:46;1.17;;;0.90;;
13291;SDS011;6714;53.056;8.690;2022-09-09T09:54:29;1.73;;;1.17;;
13291;SDS011;6714;53.056;8.690;2022-09-09T09:57:14;0.97;;;0.97;;
13291;SDS011;6714;53.056;8.690;2022-09-09T10:00:00;3.27;;;1.20;;
13291;SDS011;6714;53.056;8.690;2022-09-09T10:02:44;0.93;;;0.93;;
13291;SDS011;6714;53.056;8.690;2022-09-09T10:05:26;1.27;;;1.10;;
13291;SDS011;6714;53.056;8.690;2022-09-09T10:08:10;1.97;;;1.70;;
13291;SDS011;6714;53.056;8.690;2022-09-09T10:10:56;1.40;;;1.30;;
13291;SDS011;6714;53.056;8.690;2022-09-09T10:13:45;2.77;;;1.47;;
13291;SDS011;6714;53.056;8.690;2022-09-09T10:16:34;1.57;;;1.47;;
13291;SDS011;6714;53.056;8.690;2022-09-09T10:19:18;1.50;;;1.40;;
13291;SDS011;6714;53.056;8.690;2022-09-09T10:22:05;2.73;;;1.60;;
13291;SDS011;6714;53.056;8.690;2022-09-09T10:27:54;1.60;;;1.30;;
13291;SDS011;6714;53.056;8.690;2022-09-09T10:30:41;1.33;;;1.23;;
13291;SDS011;6714;53.056;8.690;2022-09-09T10:33:31;2.30;;;1.40;;
13291;SDS011;6714;53.056;8.690;2022-09-09T10:36:17;1.70;;;1.60;;
13291;SDS011;6714;53.056;8.690;2022-09-09T10:39:01;1.80;;;1.23;;
13291;SDS011;6714;53.056;8.690;2022-09-09T10:41:48;1.40;;;1.30;;
13291;SDS011;6714;53.056;8.690;2022-09-09T10:44:38;1.20;;;1.10;;
13291;SDS011;6714;53.056;8.690;2022-09-09T10:47:28;2.27;;;1.43;;
13291;SDS011;6714;53.056;8.690;2022-09-09T10:50:18;1.37;;;1.27;;
13291;SDS011;6714;53.056;8.690;2022-09-09T10:53:07;1.33;;;1.20;;
13291;SDS011;6714;53.056;8.690;2022-09-09T10:55:51;1.83;;;1.40;;
13291;SDS011;6714;53.056;8.690;2022-09-09T10:58:35;1.53;;;1.10;;
13291;SDS011;6714;53.056;8.690;2022-09-09T11:01:19;1.50;;;1.37;;
13291;SDS011;6714;53.056;8.690;2022-09-09T11:04:05;1.37;;;1.00;;
13291;SDS011;6714;53.056;8.690;2022-09-09T11:06:51;2.00;;;1.30;;
13291;SDS011;6714;53.056;8.690;2022-09-09T11:09:35;1.10;;;1.10;;
13291;SDS011;6714;53.056;8.690;2022-09-09T11:12:19;1.30;;;1.20;;
13291;SDS011;6714;53.056;8.690;2022-09-09T11:15:04;1.40;;;1.30;;
13291;SDS011;6714;53.056;8.690;2022-09-09T11:17:48;1.30;;;1.20;;
13291;SDS011;6714;53.056;8.690;2022-09-09T11:20:33;1.20;;;1.13;;
13291;SDS011;6714;53.056;8.690;2022-09-09T11:23:16;1.63;;;1.40;;
13291;SDS011;6714;53.056;8.690;2022-09-09T11:26:00;1.80;;;1.20;;
13291;SDS011;6714;53.056;8.690;2022-09-09T11:28:48;1.30;;;1.20;;
13291;SDS011;6714;53.056;8.690;2022-09-09T11:31:37;1.33;;;1.23;;
13291;SDS011;6714;53.056;8.690;2022-09-09T11:34:32;1.80;;;1.17;;
13291;SDS011;6714;53.056;8.690;2022-09-09T11:37:20;1.10;;;1.10;;
13291;SDS011;6714;53.056;8.690;2022-09-09T11:40:14;1.30;;;1.20;;
13291;SDS011;6714;53.056;8.690;2022-09-09T11:43:01;1.00;;;1.00;;
13291;SDS011;6714;53.056;8.690;2022-09-09T11:45:49;1.30;;;1.20;;
13291;SDS011;6714;53.056;8.690;2022-09-09T11:48:33;1.33;;;1.23;;
13291;SDS011;6714;53.056;8.690;2022-09-09T11:51:25;1.90;;;1.40;;
13291;SDS011;6714;53.056;8.690;2022-09-09T11:57:14;1.50;;;1.40;;
13291;SDS011;6714;53.056;8.690;2022-09-09T11:59:58;1.40;;;1.30;;
13291;SDS011;6714;53.056;8.690;2022-09-09T12:02:47;1.73;;;1.23;;
13291;SDS011;6714;53.056;8.690;2022-09-09T12:05:37;2.97;;;1.37;;
13291;SDS011;6714;53.056;8.690;2022-09-09T12:08:23;3.70;;;1.50;;
13291;SDS011;6714;53.056;8.690;2022-09-09T12:11:08;2.30;;;1.30;;
13291;SDS011;6714;53.056;8.690;2022-09-09T12:13:55;1.80;;;1.33;;
13291;SDS011;6714;53.056;8.690;2022-09-09T12:16:38;2.77;;;1.63;;
13291;SDS011;6714;53.056;8.690;2022-09-09T12:19:21;1.97;;;1.30;;
13291;SDS011;6714;53.056;8.690;2022-09-09T12:22:04;4.37;;;1.30;;
13291;SDS011;6714;53.056;8.690;2022-09-09T12:24:51;1.90;;;1.10;;
13291;SDS011;6714;53.056;8.690;2022-09-09T12:27:36;3.20;;;1.40;;
13291;SDS011;6714;53.056;8.690;2022-09-09T12:30:23;2.97;;;1.43;;
13291;SDS011;6714;53.056;8.690;2022-09-09T12:33:11;3.23;;;1.47;;
13291;SDS011;6714;53.056;8.690;2022-09-09T12:35:55;1.90;;;1.40;;
13291;SDS011;6714;53.056;8.690;2022-09-09T12:38:40;1.90;;;1.27;;
13291;SDS011;6714;53.056;8.690;2022-09-09T12:41:25;1.53;;;1.10;;
13291;SDS011;6714;53.056;8.690;2022-09-09T12:44:09;2.43;;;1.30;;
13291;SDS011;6714;53.056;8.690;2022-09-09T12:46:53;1.47;;;1.07;;
13291;SDS011;6714;53.056;8.690;2022-09-09T12:49:36;4.13;;;1.43;;
13291;SDS011;6714;53.056;8.690;2022-09-09T12:52:23;2.10;;;1.30;;
13291;SDS011;6714;53.056;8.690;2022-09-09T12:55:07;1.40;;;1.17;;
13291;SDS011;6714;53.056;8.690;2022-09-09T12:57:49;2.40;;;1.20;;
13291;SDS011;6714;53.056;8.690;2022-09-09T13:00:32;1.20;;;1.10;;
13291;SDS011;6714;53.056;8.690;2022-09-09T13:03:16;1.87;;;1.33;;
13291;SDS011;6714;53.056;8.690;2022-09-09T13:06:10;1.87;;;1.30;;
13291;SDS011;6714;53.056;8.690;2022-09-09T13:08:53;1.33;;;1.20;;
13291;SDS011;6714;53.056;8.690;2022-09-09T13:11:36;2.70;;;1.50;;
13291;SDS011;6714;53.056;8.690;2022-09-09T13:14:20;2.73;;;1.60;;
13291;SDS011;6714;53.056;8.690;2022-09-09T13:17:15;2.93;;;1.40;;
13291;SDS011;6714;53.056;8.690;2022-09-09T13:20:00;3.37;;;1.90;;
13291;SDS011;6714;53.056;8.690;2022-09-09T13:22:44;1.50;;;1.40;;
13291;SDS011;6714;53.056;8.690;2022-09-09T13:25:27;3.87;;;1.60;;
13291;SDS011;6714;53.056;8.690;2022-09-09T13:28:18;1.60;;;1.50;;
13291;SDS011;6714;53.056;8.690;2022-09-09T13:31:02;2.67;;;1.53;;
13291;SDS011;6714;53.056;8.690;2022-09-09T13:33:44;2.03;;;1.83;;
13291;SDS011;6714;53.056;8.690;2022-09-09T13:36:28;3.03;;;1.80;;
13291;SDS011;6714;53.056;8.690;2022-09-09T13:39:14;2.50;;;1.93;;
13291;SDS011;6714;53.056;8.690;2022-09-09T13:41:57;1.73;;;1.63;;
13291;SDS011;6714;53.056;8.690;2022-09-09T13:44:39;1.77;;;1.67;;
13291;SDS011;6714;53.056;8.690;2022-09-09T13:47:26;3.27;;;1.80;;
13291;SDS011;6714;53.056;8.690;2022-09-09T13:50:15;1.93;;;1.60;;
13291;SDS011;6714;53.056;8.690;2022-09-09T13:53:01;1.73;;;1.63;;
13291;SDS011;6714;53.056;8.690;2022-09-09T13:55:44;1.60;;;1.50;;
13291;SDS011;6714;53.056;8.690;2022-09-09T13:58:26;1.60;;;1.50;;
13291;SDS011;6714;53.056;8.690;2022-09-09T14:01:09;1.73;;;1.60;;
13291;SDS011;6714;53.056;8.690;2022-09-09T14:03:51;1.73;;;1.30;;
13291;SDS011;6714;53.056;8.690;2022-09-09T14:06:33;3.30;;;2.10;;
13291;SDS011;6714;53.056;8.690;2022-09-09T14:09:18;2.30;;;1.70;;
13291;SDS011;6714;53.056;8.690;2022-09-09T14:12:00;2.83;;;1.77;;
13291;SDS011;6714;53.056;8.690;2022-09-09T14:14:43;2.20;;;1.50;;
13291;SDS011;6714;53.056;8.690;2022-09-09T14:17:26;3.03;;;1.67;;
13291;SDS011;6714;53.056;8.690;2022-09-09T14:20:11;2.47;;;1.73;;
13291;SDS011;6714;53.056;8.690;2022-09-09T14:22:55;2.83;;;2.20;;
13291;SDS011;6714;53.056;8.690;2022-09-09T14:25:40;2.27;;;1.70;;
13291;SDS011;6714;53.056;8.690;2022-09-09T14:28:22;3.77;;;2.27;;
13291;SDS011;6714;53.056;8.690;2022-09-09T14:31:05;2.30;;;2.10;;
13291;SDS011;6714;53.056;8.690;2022-09-09T14:33:48;3.50;;;2.60;;
13291;SDS011;6714;53.056;8.690;2022-09-09T14:36:30;3.40;;;3.07;;
13291;SDS011;6714;53.056;8.690;2022-09-09T14:39:13;2.50;;;2.10;;
13291;SDS011;6714;53.056;8.690;2022-09-09T14:41:56;3.03;;;2.40;;
13291;SDS011;6714;53.056;8.690;2022-09-09T14:44:39;3.00;;;2.20;;
13291;SDS011;6714;53.056;8.690;2022-09-09T14:47:21;2.67;;;2.30;;
13291;SDS011;6714;53.056;8.690;2022-09-09T14:50:04;3.20;;;2.20;;
13291;SDS011;6714;53.056;8.690;2022-09-09T14:52:48;5.00;;;2.27;;
13291;SDS011;6714;53.056;8.690;2022-09-09T14:55:30;3.07;;;2.60;;
13291;SDS011;6714;53.056;8.690;2022-09-09T14:58:14;3.47;;;2.50;;
13291;SDS011;6714;53.056;8.690;2022-09-09T15:01:01;2.77;;;2.23;;
13291;SDS011;6714;53.056;8.690;2022-09-09T15:03:50;4.07;;;2.40;;
13291;SDS011;6714;53.056;8.690;2022-09-09T15:06:33;2.10;;;1.97;;
13291;SDS011;6714;53.056;8.690;2022-09-09T15:09:18;3.43;;;2.10;;
13291;SDS011;6714;53.056;8.690;2022-09-09T15:12:00;5.03;;;2.27;;
13291;SDS011;6714;53.056;8.690;2022-09-09T15:14:44;2.27;;;1.70;;
13291;SDS011;6714;53.056;8.690;2022-09-09T15:17:26;3.73;;;2.10;;
13291;SDS011;6714;53.056;8.690;2022-09-09T15:20:09;4.00;;;2.27;;
13291;SDS011;6714;53.056;8.690;2022-09-09T15:22:51;3.60;;;2.10;;
13291;SDS011;6714;53.056;8.690;2022-09-09T15:25:33;2.43;;;2.10;;
13291;SDS011;6714;53.056;8.690;2022-09-09T15:28:15;1.97;;;1.80;;
13291;SDS011;6714;53.056;8.690;2022-09-09T15:30:59;2.00;;;1.80;;
13291;SDS011;6714;53.056;8.690;2022-09-09T15:33:46;2.83;;;1.67;;
13291;SDS011;6714;53.056;8.690;2022-09-09T15:36:29;4.37;;;2.17;;
13291;SDS011;6714;53.056;8.690;2022-09-09T15:39:13;2.17;;;1.90;;
13291;SDS011;6714;53.056;8.690;2022-09-09T15:41:55;3.13;;;1.77;;
13291;SDS011;6714;53.056;8.690;2022-09-09T15:44:41;2.63;;;1.73;;
13291;SDS011;6714;53.056;8.690;2022-09-09T15:47:24;1.70;;;1.60;;
13291;SDS011;6714;53.056;8.690;2022-09-09T15:50:07;2.37;;;2.07;;
13291;SDS011;6714;53.056;8.690;2022-09-09T15:52:49;3.20;;;2.33;;
13291;SDS011;6714;53.056;8.690;2022-09-09T15:55:32;2.03;;;1.70;;
13291;SDS011;6714;53.056;8.690;2022-09-09T15:58:15;2.30;;;2.00;;
13291;SDS011;6714;53.056;8.690;2022-09-09T16:01:01;3.57;;;2.00;;
13291;SDS011;6714;53.056;8.690;2022-09-09T16:03:45;1.60;;;1.50;;
13291;SDS011;6714;53.056;8.690;2022-09-09T16:06:30;2.13;;;1.63;;
13291;SDS011;6714;53.056;8.690;2022-09-09T16:09:13;1.83;;;1.53;;
13291;SDS011;6714;53.056;8.690;2022-09-09T16:11:55;2.07;;;1.63;;
13291;SDS011;6714;53.056;8.690;2022-09-09T16:14:38;2.43;;;1.70;;
13291;SDS011;6714;53.056;8.690;2022-09-09T16:17:20;5.13;;;1.90;;
13291;SDS011;6714;53.056;8.690;2022-09-09T16:20:05;2.13;;;1.70;;
13291;SDS011;6714;53.056;8.690;2022-09-09T16:22:48;3.63;;;1.90;;
13291;SDS011;6714;53.056;8.690;2022-09-09T16:25:31;2.20;;;2.00;;
13291;SDS011;6714;53.056;8.690;2022-09-09T16:28:13;1.67;;;1.53;;
13291;SDS011;6714;53.056;8.690;2022-09-09T16:30:55;1.93;;;1.70;;
13291;SDS011;6714;53.056;8.690;2022-09-09T16:33:38;1.40;;;1.30;;
13291;SDS011;6714;53.056;8.690;2022-09-09T16:36:21;2.70;;;1.60;;
13291;SDS011;6714;53.056;8.690;2022-09-09T16:39:05;2.10;;;1.50;;
13291;SDS011;6714;53.056;8.690;2022-09-09T16:41:48;1.70;;;1.60;;
13291;SDS011;6714;53.056;8.690;2022-09-09T16:44:32;1.77;;;1.67;;
13291;SDS011;6714;53.056;8.690;2022-09-09T16:47:14;1.30;;;1.30;;
13291;SDS011;6714;53.056;8.690;2022-09-09T16:49:56;2.57;;;1.70;;
13291;SDS011;6714;53.056;8.690;2022-09-09T16:52:40;2.10;;;1.60;;
13291;SDS011;6714;53.056;8.690;2022-09-09T16:55:22;2.07;;;1.67;;
13291;SDS011;6714;53.056;8.690;2022-09-09T16:58:06;2.40;;;1.53;;